Time;durP1;ratioP1;P1;durP2;ratioP2;P2;SDS_P1;SDS_P2;PMS_P1;PMS_P2;Temp;Humidity;BMP_temperature;BMP_pressure;BME280_temperature;BME280_humidity;BME280_pressure;Samples;Min_cycle;Max_cycle;Signal;HPM_P1;HPM_P2
2023/03/13 17:16:58;;;;;;;9.23;4.05;;;15.80;91.20;;;;;;5111103;27;20335;-62
2023/03/13 17:19:23;;;;;;;8.65;2.78;;;15.40;92.20;;;;;;5130166;28;20501;-63
2023/03/13 17:21:49;;;;;;;7.43;2.40;;;15.30;93.70;;;;;;5129819;28;20023;-63
2023/03/13 17:24:14;;;;;;;10.60;2.72;;;15.20;95.20;;;;;;5128646;27;20020;-62
2023/03/13 17:26:40;;;;;;;10.50;2.80;;;15.20;96.40;;;;;;5129339;27;20464;-62
2023/03/13 17:29:11;;;;;;;9.82;2.33;;;15.20;95.80;;;;;;5128963;28;20030;-61
2023/03/13 17:31:37;;;;;;;9.85;3.55;;;15.20;96.50;;;;;;5125315;28;20023;-62
2023/03/13 17:34:07;;;;;;;13.50;4.63;;;15.20;96.50;;;;;;5119169;28;20440;-62
2023/03/13 17:36:33;;;;;;;14.45;4.28;;;15.20;96.40;;;;;;5105226;28;20032;-62
2023/03/13 17:39:01;;;;;;;12.27;3.78;;;15.10;96.00;;;;;;5126150;28;20030;-61
2023/03/13 17:41:30;;;;;;;12.73;4.90;;;15.10;95.60;;;;;;5129197;28;20035;-62
2023/03/13 17:43:56;;;;;;;9.88;4.00;;;15.10;96.70;;;;;;5109586;27;20469;-62
2023/03/13 17:46:33;;;;;;;8.27;2.35;;;15.00;98.60;;;;;;5109722;28;20112;-60
2023/03/13 17:49:00;;;;;;;10.52;2.55;;;15.00;99.90;;;;;;5108560;28;20088;-61
2023/03/13 17:51:28;;;;;;;10.80;3.00;;;14.90;99.50;;;;;;5128932;28;20519;-60
2023/03/13 17:53:55;;;;;;;11.18;2.10;;;14.90;99.90;;;;;;5128279;27;20027;-60
2023/03/13 17:56:21;;;;;;;7.60;2.50;;;14.80;99.60;;;;;;5129142;28;20107;-60
2023/03/13 17:58:49;;;;;;;6.68;2.10;;;14.80;99.90;;;;;;5125523;28;20488;-59
2023/03/13 18:01:17;;;;;;;9.18;2.05;;;14.70;99.90;;;;;;5107932;28;20058;-60
2023/03/13 18:03:42;;;;;;;9.55;2.58;;;14.60;99.90;;;;;;5108337;28;20541;-59
2023/03/13 18:06:32;;;;;;;8.10;2.40;;;14.50;99.90;;;;;;5108204;28;20032;-60
2023/03/13 18:09:01;;;;;;;10.45;2.35;;;14.40;99.90;;;;;;5107886;28;20027;-62
2023/03/13 18:11:27;;;;;;;9.43;2.17;;;14.30;99.90;;;;;;5108431;28;20011;-60
2023/03/13 18:13:53;;;;;;;10.82;2.35;;;14.30;99.90;;;;;;5113608;28;20027;-60
2023/03/13 18:16:23;;;;;;;8.52;3.25;;;14.20;99.90;;;;;;5089742;28;20056;-61
2023/03/13 18:18:49;;;;;;;9.90;2.50;;;14.20;99.90;;;;;;5108656;28;20020;-60
2023/03/13 18:21:15;;;;;;;9.80;3.33;;;14.20;99.90;;;;;;5128141;27;20498;-61
2023/03/13 18:23:41;;;;;;;10.50;3.05;;;14.20;99.90;;;;;;5128477;28;20034;-61
2023/03/13 18:26:20;;;;;;;10.07;3.03;;;14.20;99.90;;;;;;5127511;28;20016;-60
2023/03/13 18:28:46;;;;;;;12.25;3.70;;;14.20;99.90;;;;;;5107263;28;20024;-61
2023/03/13 18:31:12;;;;;;;15.07;4.82;;;14.20;99.90;;;;;;5097066;28;20411;-61
2023/03/13 18:33:38;;;;;;;18.20;5.18;;;14.20;99.90;;;;;;5114944;28;20026;-60
2023/03/13 18:36:14;;;;;;;10.20;3.95;;;14.20;99.90;;;;;;5113865;28;20711;-60
2023/03/13 18:38:39;;;;;;;11.45;3.60;;;14.20;99.90;;;;;;5114839;28;20080;-61
2023/03/13 18:41:05;;;;;;;15.02;4.15;;;14.20;99.90;;;;;;5112906;28;20096;-62
2023/03/13 18:43:31;;;;;;;16.80;5.07;;;14.20;99.90;;;;;;5111284;28;20030;-60
2023/03/13 18:45:56;;;;;;;13.07;5.30;;;14.10;99.90;;;;;;5112566;28;20137;-60
2023/03/13 18:48:23;;;;;;;13.98;4.15;;;14.00;99.90;;;;;;5112257;28;20030;-60
2023/03/13 18:50:48;;;;;;;11.75;2.78;;;14.00;99.90;;;;;;5071568;28;20028;-60
2023/03/13 18:53:14;;;;;;;7.38;2.53;;;13.90;99.90;;;;;;5091608;28;20071;-61
2023/03/13 18:55:40;;;;;;;11.77;4.20;;;13.90;99.90;;;;;;5091496;28;20089;-60
2023/03/13 18:58:08;;;;;;;14.13;4.25;;;13.80;99.90;;;;;;5091788;28;20066;-60
2023/03/13 19:00:33;;;;;;;12.18;4.63;;;13.80;99.90;;;;;;5099676;28;20426;-59
2023/03/13 19:02:59;;;;;;;12.40;4.15;;;13.70;99.90;;;;;;5095658;28;20072;-60
2023/03/13 19:05:25;;;;;;;11.40;3.63;;;13.70;99.90;;;;;;5091113;28;20024;-60
2023/03/13 19:07:50;;;;;;;11.20;3.33;;;13.70;99.90;;;;;;5091628;28;20028;-61
2023/03/13 19:10:22;;;;;;;8.57;3.03;;;13.60;99.90;;;;;;5103730;28;20352;-61
2023/03/13 19:12:49;;;;;;;12.32;3.10;;;13.60;99.90;;;;;;5091916;28;20028;-60
2023/03/13 19:15:16;;;;;;;8.70;2.30;;;13.60;99.90;;;;;;5091775;28;20047;-60
2023/03/13 19:17:42;;;;;;;13.25;2.83;;;13.50;99.90;;;;;;5090969;28;20580;-62
2023/03/13 19:20:17;;;;;;;13.55;3.22;;;13.60;99.90;;;;;;5090073;28;20024;-60
2023/03/13 19:22:43;;;;;;;6.13;2.53;;;13.60;99.90;;;;;;5092769;28;20021;-62
2023/03/13 19:25:10;;;;;;;9.43;2.42;;;13.60;99.90;;;;;;5070598;28;20070;-64
2023/03/13 19:27:38;;;;;;;10.00;3.05;;;13.50;99.90;;;;;;5071942;28;20672;-63
2023/03/13 19:30:09;;;;;;;6.25;2.10;;;13.50;99.90;;;;;;5071197;28;20024;-65
2023/03/13 19:32:36;;;;;;;9.02;2.60;;;13.60;99.90;;;;;;5074582;28;20642;-63
2023/03/13 19:35:02;;;;;;;11.23;3.17;;;13.60;99.90;;;;;;5091412;28;20123;-62
2023/03/13 19:37:27;;;;;;;10.65;2.75;;;13.60;99.90;;;;;;5091380;28;20150;-63
2023/03/13 19:39:53;;;;;;;9.13;2.75;;;13.60;99.90;;;;;;5095612;28;20043;-63
2023/03/13 19:42:18;;;;;;;11.48;3.13;;;13.50;99.90;;;;;;5111628;28;20406;-64
2023/03/13 19:44:44;;;;;;;9.32;2.10;;;13.50;99.90;;;;;;5108502;28;20490;-64
2023/03/13 19:47:14;;;;;;;11.57;2.65;;;13.40;99.90;;;;;;5110074;28;20081;-65
2023/03/13 19:49:40;;;;;;;11.35;2.60;;;13.30;99.90;;;;;;5111931;28;20020;-61
2023/03/13 19:52:05;;;;;;;11.88;3.03;;;13.20;99.90;;;;;;5111192;28;20030;-64
2023/03/13 19:54:31;;;;;;;8.80;2.85;;;13.20;99.90;;;;;;5107804;28;20089;-61
2023/03/13 19:56:57;;;;;;;10.10;2.60;;;13.20;99.90;;;;;;5096664;28;20047;-61
2023/03/13 19:59:30;;;;;;;10.93;2.42;;;13.30;99.90;;;;;;5089029;28;20028;-61
2023/03/13 20:01:56;;;;;;;10.95;2.40;;;13.20;99.90;;;;;;5091843;28;20031;-61
2023/03/13 20:04:23;;;;;;;12.48;2.42;;;13.20;99.90;;;;;;5090754;28;20032;-61
2023/03/13 20:06:49;;;;;;;8.15;2.45;;;13.10;99.90;;;;;;5088657;28;20640;-61
2023/03/13 20:09:16;;;;;;;8.98;2.42;;;13.00;99.90;;;;;;5090936;28;20063;-61
2023/03/13 20:11:42;;;;;;;7.97;2.53;;;12.90;99.90;;;;;;5090297;28;20024;-62
2023/03/13 20:14:09;;;;;;;9.45;2.80;;;12.80;99.90;;;;;;5089907;28;20091;-61
2023/03/13 20:16:34;;;;;;;9.13;2.67;;;12.70;99.90;;;;;;5070314;28;20076;-62
2023/03/13 20:19:00;;;;;;;9.07;2.97;;;12.60;99.90;;;;;;5070403;28;20102;-64
